createdAt,value
2023-05-14T00:00:53.388Z,11.88
2023-05-14T00:02:25.218Z,11.05
2023-05-14T00:03:58.562Z,10.70
2023-05-14T00:05:30.473Z,10.45
2023-05-14T00:07:02.113Z,10.70
2023-05-14T00:08:33.826Z,10.77
2023-05-14T00:10:06.747Z,10.43
2023-05-14T00:11:38.493Z,10.15
2023-05-14T00:13:10.202Z,10.57
2023-05-14T00:14:41.906Z,10.07
2023-05-14T00:16:13.724Z,10.43
2023-05-14T00:17:45.695Z,10.30
2023-05-14T00:19:19.150Z,10.25
2023-05-14T00:20:54.605Z,10.40
2023-05-14T00:22:26.285Z,11.13
2023-05-14T00:23:57.952Z,10.93
2023-05-14T00:25:30.017Z,10.60
2023-05-14T00:27:01.609Z,10.85
2023-05-14T00:28:33.191Z,11.00
2023-05-14T00:30:07.002Z,10.75
2023-05-14T00:31:38.704Z,10.95
2023-05-14T00:33:10.319Z,10.63
2023-05-14T00:34:43.336Z,10.73
2023-05-14T00:36:14.929Z,11.10
2023-05-14T00:37:46.595Z,12.02
2023-05-14T00:39:18.221Z,11.10
2023-05-14T00:40:52.819Z,11.95
2023-05-14T00:42:24.429Z,11.88
2023-05-14T00:43:56.076Z,10.50
2023-05-14T00:45:27.828Z,10.60
2023-05-14T00:46:59.788Z,10.00
2023-05-14T00:48:31.496Z,10.48
2023-05-14T00:50:05.730Z,9.90
2023-05-14T00:51:38.076Z,11.35
2023-05-14T00:53:10.713Z,10.43
2023-05-14T00:54:42.799Z,10.85
2023-05-14T00:56:14.588Z,10.85
2023-05-14T00:57:46.294Z,11.32
2023-05-14T00:59:17.954Z,10.15
2023-05-14T01:00:49.842Z,10.57
2023-05-14T01:02:21.822Z,10.00
2023-05-14T01:03:54.912Z,10.20
2023-05-14T01:05:28.217Z,10.45
2023-05-14T01:07:05.396Z,9.93
2023-05-14T01:08:42.125Z,9.80
2023-05-14T01:10:15.989Z,10.82
2023-05-14T01:11:50.173Z,10.40
2023-05-14T01:13:27.368Z,10.10
2023-05-14T01:15:02.105Z,10.52
2023-05-14T01:16:34.093Z,9.77
2023-05-14T01:18:07.933Z,10.20
2023-05-14T01:19:40.528Z,10.05
2023-05-14T01:21:35.291Z,10.55
2023-05-14T01:23:06.908Z,11.02
2023-05-14T01:24:38.625Z,10.15
2023-05-14T01:26:10.443Z,11.50
2023-05-14T01:27:43.946Z,10.88
2023-05-14T01:29:17.880Z,10.13
2023-05-14T01:30:54.275Z,10.20
2023-05-14T01:32:26.014Z,11.02
2023-05-14T01:33:57.650Z,10.30
2023-05-14T01:35:29.897Z,9.85
2023-05-14T01:37:03.004Z,11.75
2023-05-14T01:38:34.776Z,11.80
2023-05-14T01:40:07.793Z,10.45
2023-05-14T01:41:39.530Z,11.50
2023-05-14T01:43:11.787Z,11.07
2023-05-14T01:44:43.472Z,10.57
2023-05-14T01:46:18.149Z,11.40
2023-05-14T01:47:50.017Z,10.68
2023-05-14T01:49:21.871Z,11.68
2023-05-14T01:50:53.530Z,11.32
2023-05-14T01:52:26.622Z,10.32
2023-05-14T01:53:58.330Z,11.13
2023-05-14T01:55:30.001Z,12.60
2023-05-14T01:57:01.665Z,13.38
2023-05-14T01:58:33.323Z,12.98
2023-05-14T02:00:06.240Z,12.15
2023-05-14T02:01:37.929Z,11.45
2023-05-14T02:03:09.696Z,12.30
2023-05-14T02:04:41.416Z,14.57
2023-05-14T02:06:13.116Z,15.68
2023-05-14T02:07:46.139Z,14.18
2023-05-14T02:09:18.225Z,12.15
2023-05-14T02:10:49.984Z,11.85
2023-05-14T02:12:22.453Z,12.93
2023-05-14T02:13:54.130Z,12.70
2023-05-14T02:15:25.812Z,12.00
2023-05-14T02:16:57.604Z,11.55
2023-05-14T02:18:29.312Z,11.63
2023-05-14T02:20:00.955Z,12.40
2023-05-14T02:21:32.701Z,12.73
2023-05-14T02:23:05.744Z,12.55
2023-05-14T02:24:37.381Z,12.43
2023-05-14T02:26:09.788Z,15.48
2023-05-14T02:27:41.516Z,15.80
2023-05-14T02:29:13.163Z,14.07
2023-05-14T02:30:44.950Z,16.48
2023-05-14T02:32:16.714Z,13.10
2023-05-14T02:33:48.471Z,13.05
2023-05-14T02:35:20.105Z,13.10
2023-05-14T02:36:51.762Z,13.73
2023-05-14T02:38:25.769Z,15.10
2023-05-14T02:39:57.523Z,13.73
2023-05-14T02:41:29.135Z,12.32
2023-05-14T02:43:00.808Z,14.77
2023-05-14T02:44:32.492Z,16.05
2023-05-14T02:46:04.393Z,13.13
2023-05-14T02:47:37.988Z,12.93
2023-05-14T02:49:10.137Z,12.73
2023-05-14T02:50:41.778Z,16.85
2023-05-14T02:52:13.413Z,13.80
2023-05-14T02:53:46.473Z,13.63
2023-05-14T02:55:18.184Z,13.30
2023-05-14T02:56:49.836Z,13.82
2023-05-14T02:58:25.065Z,13.05
2023-05-14T02:59:59.974Z,13.60
2023-05-14T03:01:32.108Z,13.77
2023-05-14T03:03:04.329Z,14.75
2023-05-14T03:04:36.581Z,20.05
2023-05-14T03:06:08.323Z,14.40
2023-05-14T03:07:39.998Z,13.90
2023-05-14T03:09:13.045Z,14.68
2023-05-14T03:10:44.717Z,15.60
2023-05-14T03:12:16.436Z,15.52
2023-05-14T03:13:48.146Z,14.52
2023-05-14T03:15:19.942Z,14.52
2023-05-14T03:16:51.707Z,13.82
2023-05-14T03:18:23.430Z,15.70
2023-05-14T03:19:55.115Z,15.43
2023-05-14T03:21:27.321Z,15.18
2023-05-14T03:22:59.051Z,14.93
2023-05-14T03:24:32.298Z,14.50
2023-05-14T03:26:05.001Z,14.68
2023-05-14T03:27:36.697Z,14.88
2023-05-14T03:29:09.778Z,15.75
2023-05-14T03:30:41.636Z,14.88
2023-05-14T03:32:13.296Z,15.35
2023-05-14T03:33:44.950Z,14.55
2023-05-14T03:35:16.752Z,14.55
2023-05-14T03:36:48.499Z,15.02
2023-05-14T03:38:20.154Z,14.60
2023-05-14T03:39:53.470Z,14.30
2023-05-14T03:41:25.148Z,15.70
2023-05-14T03:42:56.754Z,15.40
2023-05-14T03:44:28.602Z,16.80
2023-05-14T03:46:00.333Z,16.42
2023-05-14T03:47:32.058Z,15.38
2023-05-14T03:49:03.879Z,17.50
2023-05-14T03:50:35.817Z,15.63
2023-05-14T03:52:07.485Z,16.13
2023-05-14T03:53:39.114Z,14.95
2023-05-14T03:55:12.229Z,16.30
2023-05-14T03:56:43.913Z,15.73
2023-05-14T03:58:15.702Z,17.92
2023-05-14T03:59:47.368Z,15.43
2023-05-14T04:01:19.077Z,15.68
2023-05-14T04:02:50.913Z,15.30
2023-05-14T04:04:22.663Z,18.20
2023-05-14T04:05:54.328Z,19.02
2023-05-14T04:07:26.030Z,18.00
2023-05-14T04:08:57.644Z,16.52
2023-05-14T04:10:32.112Z,15.55
2023-05-14T04:12:04.294Z,17.40
2023-05-14T04:13:36.001Z,19.20
2023-05-14T04:15:09.028Z,15.48
2023-05-14T04:16:40.823Z,19.92
2023-05-14T04:18:12.513Z,15.95
2023-05-14T04:19:44.154Z,14.20
2023-05-14T04:21:15.789Z,14.23
2023-05-14T04:22:47.393Z,14.05
2023-05-14T04:24:18.978Z,13.55
2023-05-14T04:25:51.929Z,13.32
2023-05-14T04:27:23.715Z,14.93
2023-05-14T04:28:55.733Z,13.70
2023-05-14T04:30:27.392Z,13.75
2023-05-14T04:31:59.089Z,14.15
2023-05-14T04:33:31.102Z,12.63
2023-05-14T04:35:02.938Z,13.48
2023-05-14T04:36:34.641Z,13.88
2023-05-14T04:38:06.275Z,14.85
2023-05-14T04:39:37.978Z,14.05
2023-05-14T04:41:11.054Z,12.43
2023-05-14T04:42:42.691Z,13.27
2023-05-14T04:44:14.322Z,13.50
2023-05-14T04:45:46.047Z,13.02
2023-05-14T04:47:17.839Z,12.43
2023-05-14T04:48:50.323Z,12.68
2023-05-14T04:50:22.315Z,13.60
2023-05-14T04:51:54.193Z,12.90
2023-05-14T04:53:25.953Z,13.48
2023-05-14T04:54:57.541Z,13.40
2023-05-14T04:56:30.562Z,13.90
2023-05-14T04:58:02.254Z,15.80
2023-05-14T04:59:33.872Z,16.40
2023-05-14T05:01:06.122Z,14.48
2023-05-14T05:02:37.865Z,17.27
2023-05-14T05:04:09.645Z,14.05
2023-05-14T05:05:41.349Z,15.55
2023-05-14T05:07:13.374Z,15.48
2023-05-14T05:08:44.993Z,15.55
2023-05-14T05:10:16.682Z,15.07
2023-05-14T05:11:49.714Z,16.23
2023-05-14T05:13:21.336Z,13.13
2023-05-14T05:14:52.950Z,13.60
2023-05-14T05:16:24.677Z,13.00
2023-05-14T05:17:56.521Z,14.77
2023-05-14T05:19:39.658Z,13.30
2023-05-14T05:21:15.116Z,12.05
2023-05-14T05:22:46.963Z,12.85
2023-05-14T05:24:18.652Z,16.05
2023-05-14T05:25:50.877Z,15.80
2023-05-14T05:27:23.889Z,13.27
2023-05-14T05:28:55.626Z,12.43
2023-05-14T05:30:27.264Z,12.23
2023-05-14T05:31:59.107Z,13.32
2023-05-14T05:33:30.722Z,14.02
2023-05-14T05:35:02.548Z,16.63
2023-05-14T05:36:34.262Z,16.73
2023-05-14T05:38:05.886Z,12.73
2023-05-14T05:39:37.472Z,13.02
2023-05-14T05:41:09.059Z,14.23
2023-05-14T05:42:41.999Z,17.15
2023-05-14T05:44:13.614Z,14.98
2023-05-14T05:45:46.028Z,16.25
2023-05-14T05:47:17.754Z,15.23
2023-05-14T05:48:49.505Z,14.50
2023-05-14T05:50:21.453Z,15.73
2023-05-14T05:51:53.285Z,17.45
2023-05-14T05:53:24.963Z,18.30
2023-05-14T05:54:56.616Z,23.58
2023-05-14T05:56:28.375Z,17.50
2023-05-14T05:58:01.862Z,18.15
2023-05-14T05:59:33.572Z,16.77
2023-05-14T06:01:05.255Z,15.50
2023-05-14T06:02:37.172Z,18.30
2023-05-14T06:04:08.943Z,16.38
2023-05-14T06:05:40.866Z,18.85
2023-05-14T06:07:12.949Z,16.25
2023-05-14T06:08:44.630Z,15.68
2023-05-14T06:10:16.333Z,15.27
2023-05-14T06:11:48.081Z,18.73
2023-05-14T06:13:22.239Z,16.27
2023-05-14T06:14:55.183Z,16.80
2023-05-14T06:16:26.854Z,16.85
2023-05-14T06:17:58.875Z,19.20
2023-05-14T06:19:30.598Z,26.08
2023-05-14T06:21:02.309Z,17.25
2023-05-14T06:22:34.048Z,19.13
2023-05-14T06:24:06.333Z,20.80
2023-05-14T06:25:38.049Z,16.38
2023-05-14T06:27:10.706Z,20.08
2023-05-14T06:28:43.827Z,16.58
2023-05-14T06:30:16.046Z,15.38
2023-05-14T06:31:47.826Z,17.00
2023-05-14T06:33:21.142Z,17.88
2023-05-14T06:34:52.822Z,19.30
2023-05-14T06:36:24.562Z,19.30
2023-05-14T06:37:56.206Z,19.23
2023-05-14T06:39:28.026Z,17.98
2023-05-14T06:40:59.811Z,18.85
2023-05-14T06:42:31.511Z,18.73
2023-05-14T06:44:04.878Z,22.17
2023-05-14T06:45:36.590Z,22.50
2023-05-14T06:47:11.461Z,23.85
2023-05-14T06:48:43.192Z,17.88
2023-05-14T06:50:14.966Z,16.42
2023-05-14T06:51:53.310Z,21.58
2023-05-14T06:53:25.400Z,16.23
2023-05-14T06:54:57.106Z,14.70
2023-05-14T06:56:28.758Z,14.73
2023-05-14T06:58:00.556Z,21.95
2023-05-14T06:59:33.600Z,14.43
2023-05-14T07:01:06.597Z,16.85
2023-05-14T07:02:38.298Z,20.73
2023-05-14T07:04:10.009Z,17.02
2023-05-14T07:05:42.180Z,15.77
2023-05-14T07:07:15.540Z,17.95
2023-05-14T07:08:47.313Z,17.80
2023-05-14T07:10:18.962Z,17.42
2023-05-14T07:11:50.631Z,16.20
2023-05-14T07:13:22.341Z,21.02
2023-05-14T07:14:57.025Z,17.52
2023-05-14T07:16:28.709Z,18.70
2023-05-14T07:18:00.489Z,19.35
2023-05-14T07:19:33.924Z,16.88
2023-05-14T07:21:06.617Z,17.45
2023-05-14T07:22:38.379Z,18.67
2023-05-14T07:24:10.096Z,16.48
2023-05-14T07:25:41.822Z,19.83
2023-05-14T07:27:13.467Z,20.52
2023-05-14T07:28:45.133Z,15.95
2023-05-14T07:30:18.210Z,16.98
2023-05-14T07:31:50.193Z,18.20
2023-05-14T07:33:22.508Z,15.02
2023-05-14T07:34:54.576Z,17.25
2023-05-14T07:36:26.243Z,20.67
2023-05-14T07:37:58.215Z,18.75
2023-05-14T07:39:29.818Z,17.33
2023-05-14T07:41:01.510Z,19.38
2023-05-14T07:42:36.603Z,17.02
2023-05-14T07:44:08.872Z,18.77
2023-05-14T07:45:41.987Z,19.23
2023-05-14T07:47:16.628Z,15.32
2023-05-14T07:48:48.350Z,15.75
2023-05-14T07:50:20.326Z,14.57
2023-05-14T07:51:51.984Z,16.27
2023-05-14T07:53:24.969Z,14.30
2023-05-14T07:54:56.779Z,16.13
2023-05-14T07:56:28.558Z,13.55
2023-05-14T07:58:00.398Z,15.80
2023-05-14T07:59:32.414Z,14.48
2023-05-14T08:01:07.306Z,15.85
2023-05-14T08:02:39.085Z,15.05
2023-05-14T08:04:15.226Z,13.50
2023-05-14T08:05:46.963Z,13.57
2023-05-14T08:07:18.637Z,12.75
2023-05-14T08:08:50.288Z,14.18
2023-05-14T08:10:22.380Z,16.63
2023-05-14T08:11:54.652Z,19.05
2023-05-14T08:13:26.271Z,15.90
2023-05-14T08:14:57.915Z,17.75
2023-05-14T08:16:31.159Z,13.90
2023-05-14T08:18:03.676Z,15.00
2023-05-14T08:19:35.551Z,17.42
2023-05-14T08:21:07.212Z,16.30
2023-05-14T08:22:38.946Z,15.45
2023-05-14T08:24:11.395Z,16.15
2023-05-14T08:25:43.119Z,16.50
2023-05-14T08:27:14.714Z,19.05
2023-05-14T08:28:46.328Z,17.25
2023-05-14T08:30:18.174Z,17.38
2023-05-14T08:31:51.389Z,15.85
2023-05-14T08:33:23.406Z,16.95
2023-05-14T08:34:55.077Z,20.80
2023-05-14T08:36:26.963Z,19.15
2023-05-14T08:37:58.600Z,20.58
2023-05-14T08:39:30.312Z,17.10
2023-05-14T08:41:01.947Z,18.70
2023-05-14T08:42:33.685Z,18.30
2023-05-14T08:44:09.219Z,18.75
2023-05-14T08:45:40.886Z,16.77
2023-05-14T08:47:14.026Z,19.15
2023-05-14T08:48:47.196Z,16.73
2023-05-14T08:50:22.767Z,18.45
2023-05-14T08:51:57.291Z,17.95
2023-05-14T08:53:28.985Z,18.20
2023-05-14T08:55:01.062Z,19.23
2023-05-14T08:56:32.778Z,16.75
2023-05-14T08:58:04.478Z,16.75
2023-05-14T08:59:36.123Z,17.35
2023-05-14T09:01:07.745Z,18.20
2023-05-14T09:02:41.251Z,17.65
2023-05-14T09:04:15.564Z,21.75
2023-05-14T09:05:48.450Z,19.38
2023-05-14T09:07:20.081Z,20.85
2023-05-14T09:08:51.781Z,18.45
2023-05-14T09:10:23.677Z,20.40
2023-05-14T09:11:55.681Z,16.05
2023-05-14T09:13:28.410Z,18.15
2023-05-14T09:15:00.129Z,18.58
2023-05-14T09:16:31.798Z,18.23
2023-05-14T09:18:06.566Z,19.65
2023-05-14T09:19:40.197Z,17.77
2023-05-14T09:21:13.469Z,17.58
2023-05-14T09:22:45.429Z,17.95
2023-05-14T09:24:20.857Z,17.80
2023-05-14T09:25:52.739Z,17.92
2023-05-14T09:27:25.934Z,16.42
2023-05-14T09:28:57.806Z,18.67
2023-05-14T09:30:50.067Z,18.40
2023-05-14T09:32:21.756Z,18.20
2023-05-14T09:33:54.903Z,18.40
2023-05-14T09:35:26.658Z,17.58
2023-05-14T09:36:59.008Z,16.65
2023-05-14T09:38:31.012Z,15.43
2023-05-14T09:40:06.425Z,18.23
2023-05-14T09:41:38.317Z,16.30
2023-05-14T09:43:09.983Z,16.90
2023-05-14T09:44:41.660Z,15.80
2023-05-14T09:46:13.433Z,15.05
2023-05-14T09:47:45.525Z,14.63
2023-05-14T09:49:19.233Z,15.85
2023-05-14T09:50:52.111Z,15.50
2023-05-14T09:52:23.912Z,15.88
2023-05-14T09:53:56.221Z,16.92
2023-05-14T09:55:28.037Z,15.65
2023-05-14T09:56:59.783Z,16.58
2023-05-14T09:58:31.444Z,17.88
2023-05-14T10:00:03.943Z,15.85
2023-05-14T10:01:35.877Z,15.10
2023-05-14T10:03:08.127Z,14.18
2023-05-14T10:04:41.294Z,15.07
2023-05-14T10:06:13.397Z,13.18
2023-05-14T10:07:47.866Z,13.45
2023-05-14T10:09:19.662Z,14.25
2023-05-14T10:10:51.915Z,13.45
2023-05-14T10:12:23.625Z,13.85
2023-05-14T10:13:57.583Z,13.98
2023-05-14T10:15:33.108Z,13.02
2023-05-14T10:17:05.099Z,14.07
2023-05-14T10:18:40.251Z,12.80
2023-05-14T10:20:13.638Z,13.20
2023-05-14T10:21:45.971Z,12.52
2023-05-14T10:23:17.923Z,12.70
2023-05-14T10:24:52.599Z,12.23
2023-05-14T10:26:24.376Z,12.23
2023-05-14T10:27:56.139Z,12.35
2023-05-14T10:29:32.555Z,12.88
2023-05-14T10:31:04.250Z,12.38
2023-05-14T10:32:38.059Z,12.32
2023-05-14T10:34:18.826Z,12.07
2023-05-14T10:36:00.564Z,12.20
2023-05-14T10:37:32.314Z,13.07
2023-05-14T10:39:06.833Z,11.43
2023-05-14T10:40:39.409Z,10.77
2023-05-14T10:42:11.232Z,11.60
2023-05-14T10:43:43.324Z,12.38
2023-05-14T10:45:15.284Z,13.43
2023-05-14T10:46:47.018Z,12.98
2023-05-14T10:48:19.830Z,14.13
2023-05-14T10:49:54.761Z,13.27
2023-05-14T10:51:28.012Z,13.82
2023-05-14T10:52:59.799Z,12.77
2023-05-14T10:54:31.598Z,12.82
2023-05-14T10:56:06.174Z,13.85
2023-05-14T10:57:38.946Z,13.82
2023-05-14T10:59:11.652Z,12.95
2023-05-14T11:00:43.404Z,12.50
2023-05-14T11:02:19.480Z,13.75
2023-05-14T11:03:51.105Z,13.45
2023-05-14T11:05:22.879Z,13.05
2023-05-14T11:06:56.304Z,13.38
2023-05-14T11:08:29.369Z,14.32
2023-05-14T11:10:04.688Z,14.13
2023-05-14T11:11:36.777Z,13.35
2023-05-14T11:13:08.496Z,13.38
2023-05-14T11:14:40.243Z,13.20
2023-05-14T11:16:22.575Z,12.90
2023-05-14T11:17:55.523Z,12.48
2023-05-14T11:19:27.412Z,12.75
2023-05-14T11:20:59.505Z,12.23
2023-05-14T11:22:40.254Z,11.60
2023-05-14T11:24:12.000Z,11.20
2023-05-14T11:25:43.924Z,11.05
2023-05-14T11:27:16.066Z,11.27
2023-05-14T11:28:47.728Z,11.10
2023-05-14T11:30:21.734Z,10.68
2023-05-14T11:31:53.582Z,10.60
2023-05-14T11:33:25.495Z,10.07
2023-05-14T11:34:57.955Z,9.60
2023-05-14T11:36:29.631Z,10.88
2023-05-14T11:38:03.071Z,10.88
2023-05-14T11:39:36.060Z,9.90
2023-05-14T11:41:07.718Z,10.45
2023-05-14T11:42:39.477Z,9.90
2023-05-14T11:44:11.113Z,9.75
2023-05-14T11:45:43.310Z,9.07
2023-05-14T11:47:15.152Z,9.48
2023-05-14T11:48:47.247Z,9.52
2023-05-14T11:50:19.297Z,9.95
2023-05-14T11:51:51.332Z,9.93
2023-05-14T11:53:28.070Z,10.10
2023-05-14T11:55:10.591Z,9.32
2023-05-14T11:56:43.111Z,8.85
2023-05-14T11:58:25.840Z,9.23
2023-05-14T12:00:00.573Z,8.82
2023-05-14T12:01:45.761Z,9.10
2023-05-14T12:03:39.162Z,8.27
2023-05-14T12:08:11.891Z,7.47
2023-05-14T12:10:43.605Z,7.60
2023-05-14T12:12:27.347Z,7.60
2023-05-14T12:16:09.011Z,8.20
2023-05-14T12:17:46.879Z,9.25
2023-05-14T12:21:26.919Z,11.10
2023-05-14T12:23:20.126Z,9.50
2023-05-14T12:25:05.516Z,9.10
2023-05-14T12:26:53.257Z,8.68
2023-05-14T12:28:31.585Z,8.00
2023-05-14T12:31:51.368Z,8.25
2023-05-14T12:33:24.231Z,7.90
2023-05-14T12:35:18.792Z,7.40
2023-05-14T12:36:50.437Z,7.82
2023-05-14T12:38:22.075Z,8.30
2023-05-14T12:39:54.299Z,7.53
2023-05-14T12:41:25.877Z,6.93
2023-05-14T12:42:58.841Z,7.78
2023-05-14T12:44:30.600Z,7.30
2023-05-14T12:46:02.204Z,7.50
2023-05-14T12:47:33.941Z,7.47
2023-05-14T12:49:06.921Z,7.80
2023-05-14T12:50:38.529Z,7.10
2023-05-14T12:52:22.760Z,7.25
2023-05-14T12:54:01.692Z,7.93
2023-05-14T12:55:34.283Z,8.48
2023-05-14T12:57:06.268Z,7.43
2023-05-14T12:58:39.245Z,7.93
2023-05-14T13:00:14.497Z,8.02
2023-05-14T13:01:46.164Z,7.95
2023-05-14T13:03:21.147Z,8.73
2023-05-14T13:04:52.996Z,8.20
2023-05-14T13:06:24.600Z,9.00
2023-05-14T13:07:58.708Z,8.48
2023-05-14T13:09:30.340Z,7.88
2023-05-14T13:11:01.963Z,8.38
2023-05-14T13:12:33.547Z,8.40
2023-05-14T13:14:06.564Z,8.30
2023-05-14T13:15:38.519Z,8.68
2023-05-14T13:17:10.152Z,8.30
2023-05-14T13:18:41.747Z,8.02
2023-05-14T13:20:13.435Z,8.18
2023-05-14T13:21:45.093Z,8.10
2023-05-14T13:23:16.690Z,8.80
2023-05-14T13:24:48.373Z,8.00
2023-05-14T13:26:20.062Z,8.52
2023-05-14T13:27:51.699Z,8.68
2023-05-14T13:29:24.700Z,8.40
2023-05-14T13:31:06.993Z,8.50
2023-05-14T13:32:39.637Z,8.88
2023-05-14T13:34:13.182Z,8.70
2023-05-14T13:35:44.925Z,8.23
2023-05-14T13:37:16.622Z,8.60
2023-05-14T13:38:48.461Z,8.82
2023-05-14T13:40:20.196Z,8.68
2023-05-14T13:41:51.856Z,7.95
2023-05-14T13:43:23.582Z,7.55
2023-05-14T13:44:57.468Z,8.50
2023-05-14T13:46:29.179Z,7.70
2023-05-14T13:48:00.864Z,7.55
2023-05-14T13:49:32.648Z,6.97
2023-05-14T13:51:04.400Z,7.75
2023-05-14T13:52:36.558Z,7.40
2023-05-14T13:54:08.203Z,7.40
2023-05-14T13:55:39.920Z,7.22
2023-05-14T13:57:14.188Z,7.00
2023-05-14T13:58:45.804Z,7.68
2023-05-14T14:00:19.263Z,7.40
2023-05-14T14:01:51.667Z,7.28
2023-05-14T14:03:23.522Z,6.95
2023-05-14T14:04:55.101Z,6.78
2023-05-14T14:06:27.416Z,6.18
2023-05-14T14:08:04.565Z,6.18
2023-05-14T14:09:45.136Z,6.57
2023-05-14T14:11:17.634Z,6.18
2023-05-14T14:12:49.361Z,6.57
2023-05-14T14:14:20.963Z,6.82
2023-05-14T14:15:53.952Z,6.75
2023-05-14T14:17:25.666Z,7.13
2023-05-14T14:18:57.485Z,6.88
2023-05-14T14:20:29.344Z,6.60
2023-05-14T14:22:01.031Z,7.10
2023-05-14T14:23:32.701Z,6.80
2023-05-14T14:25:04.921Z,6.80
2023-05-14T14:26:36.711Z,6.45
2023-05-14T14:28:08.432Z,6.32
2023-05-14T14:29:40.055Z,6.32
2023-05-14T14:31:13.167Z,6.75
2023-05-14T14:32:45.133Z,5.93
2023-05-14T14:34:16.765Z,5.82
2023-05-14T14:35:48.434Z,5.57
2023-05-14T14:37:21.265Z,5.60
2023-05-14T14:38:54.680Z,5.53
2023-05-14T14:40:26.400Z,4.97
2023-05-14T14:41:57.989Z,4.75
2023-05-14T14:43:29.649Z,5.10
2023-05-14T14:45:01.240Z,5.05
2023-05-14T14:46:34.458Z,4.80
2023-05-14T14:48:25.817Z,4.90
2023-05-14T14:49:57.501Z,5.15
2023-05-14T14:51:30.192Z,4.80
2023-05-14T14:53:01.869Z,4.68
2023-05-14T14:54:33.453Z,5.60
2023-05-14T14:56:07.150Z,5.13
2023-05-14T14:57:38.802Z,4.65
2023-05-14T14:59:10.462Z,5.10
2023-05-14T15:00:42.105Z,5.22
2023-05-14T15:02:15.180Z,5.50
2023-05-14T15:03:48.395Z,5.13
2023-05-14T15:05:20.108Z,4.95
2023-05-14T15:06:51.677Z,4.72
2023-05-14T15:08:25.316Z,5.05
2023-05-14T15:09:56.921Z,5.07
2023-05-14T15:11:29.071Z,4.78
2023-05-14T15:13:00.701Z,4.88
2023-05-14T15:14:32.329Z,5.00
2023-05-14T15:16:04.047Z,5.00
2023-05-14T15:17:37.033Z,5.00
2023-05-14T15:19:08.715Z,4.90
2023-05-14T15:20:40.533Z,5.53
2023-05-14T15:22:12.169Z,5.22
2023-05-14T15:23:43.756Z,5.13
2023-05-14T15:25:15.458Z,4.65
2023-05-14T15:26:47.275Z,4.80
2023-05-14T15:28:18.851Z,4.50
2023-05-14T15:29:50.458Z,4.57
2023-05-14T15:31:22.107Z,4.63
2023-05-14T15:32:55.156Z,4.38
2023-05-14T15:34:26.737Z,5.55
2023-05-14T15:35:58.497Z,6.28
2023-05-14T15:37:31.871Z,6.53
2023-05-14T15:39:03.849Z,8.05
2023-05-14T15:40:35.556Z,8.18
2023-05-14T15:42:07.332Z,8.93
2023-05-14T15:43:38.942Z,10.30
2023-05-14T15:45:11.809Z,9.07
2023-05-14T15:46:43.564Z,10.00
2023-05-14T15:48:16.631Z,9.93
2023-05-14T15:49:48.262Z,10.60
2023-05-14T15:51:19.851Z,9.95
2023-05-14T15:52:51.447Z,11.57
2023-05-14T15:54:23.087Z,10.65
2023-05-14T15:55:54.723Z,10.43
2023-05-14T15:57:26.383Z,11.45
2023-05-14T15:58:58.025Z,9.20
2023-05-14T16:00:29.875Z,10.00
2023-05-14T16:02:01.721Z,8.63
2023-05-14T16:03:34.783Z,8.05
2023-05-14T16:07:28.841Z,5.05
2023-05-14T16:09:01.531Z,3.10
2023-05-14T16:10:33.170Z,5.45
2023-05-14T16:12:06.007Z,3.25
2023-05-14T16:13:39.145Z,3.38
2023-05-14T16:15:11.457Z,2.88
2023-05-14T16:16:43.210Z,3.63
2023-05-14T16:18:15.057Z,5.20
2023-05-14T16:19:48.353Z,4.30
2023-05-14T16:21:20.059Z,2.80
2023-05-14T16:22:51.688Z,3.80
2023-05-14T16:24:23.340Z,4.03
2023-05-14T16:25:55.015Z,2.50
2023-05-14T16:27:27.131Z,3.03
2023-05-14T16:28:58.910Z,3.25
2023-05-14T16:30:30.626Z,3.65
2023-05-14T16:32:02.634Z,4.10
2023-05-14T16:33:34.507Z,2.92
2023-05-14T16:35:08.550Z,3.95
2023-05-14T16:36:40.322Z,3.33
2023-05-14T16:38:12.026Z,2.40
2023-05-14T16:39:46.672Z,2.83
2023-05-14T16:41:18.363Z,2.53
2023-05-14T16:42:50.034Z,4.18
2023-05-14T16:44:22.143Z,3.10
2023-05-14T16:45:54.307Z,2.58
2023-05-14T16:47:26.078Z,2.85
2023-05-14T16:48:57.866Z,5.88
2023-05-14T16:50:31.296Z,3.92
2023-05-14T16:52:03.148Z,5.10
2023-05-14T16:53:37.523Z,4.10
2023-05-14T16:55:11.478Z,4.18
2023-05-14T16:56:48.040Z,4.45
2023-05-14T16:58:20.025Z,7.70
2023-05-14T16:59:51.783Z,6.03
2023-05-14T17:01:23.452Z,6.07
2023-05-14T17:02:55.439Z,4.15
2023-05-14T17:04:29.023Z,5.20
2023-05-14T17:06:02.706Z,3.08
2023-05-14T17:07:34.376Z,4.75
2023-05-14T17:09:06.967Z,3.10
2023-05-14T17:10:38.740Z,2.92
2023-05-14T17:12:11.315Z,3.08
2023-05-14T17:13:46.233Z,4.07
2023-05-14T17:15:18.136Z,3.83
2023-05-14T17:16:50.275Z,4.22
2023-05-14T17:18:21.932Z,4.20
2023-05-14T17:19:53.812Z,4.28
2023-05-14T17:21:26.878Z,5.40
2023-05-14T17:22:58.547Z,6.10
2023-05-14T17:24:30.298Z,3.85
2023-05-14T17:26:03.225Z,4.03
2023-05-14T17:27:36.157Z,4.57
2023-05-14T17:29:08.168Z,4.00
2023-05-14T17:30:40.288Z,4.53
2023-05-14T17:32:12.042Z,3.80
2023-05-14T17:33:46.736Z,5.15
2023-05-14T17:35:18.382Z,4.03
2023-05-14T17:36:51.403Z,3.83
2023-05-14T17:38:23.044Z,5.03
2023-05-14T17:39:54.843Z,4.55
2023-05-14T17:41:26.705Z,4.30
2023-05-14T17:42:58.417Z,3.70
2023-05-14T17:44:30.173Z,3.45
2023-05-14T17:46:01.831Z,3.63
2023-05-14T17:47:33.494Z,3.08
2023-05-14T17:49:05.214Z,3.90
2023-05-14T17:50:36.954Z,5.05
2023-05-14T17:52:10.588Z,5.22
2023-05-14T17:53:42.187Z,3.80
2023-05-14T17:55:13.961Z,4.07
2023-05-14T17:56:46.083Z,4.63
2023-05-14T17:58:17.897Z,3.85
2023-05-14T17:59:49.636Z,4.03
2023-05-14T18:01:21.341Z,5.55
2023-05-14T18:02:53.035Z,4.15
2023-05-14T18:04:24.901Z,3.60
2023-05-14T18:05:56.666Z,4.53
2023-05-14T18:07:29.870Z,4.72
2023-05-14T18:09:01.496Z,4.60
2023-05-14T18:10:33.196Z,4.25
2023-05-14T18:12:05.518Z,5.50
2023-05-14T18:13:37.256Z,5.15
2023-05-14T18:15:09.542Z,5.35
2023-05-14T18:16:41.288Z,4.60
2023-05-14T18:18:13.555Z,6.32
2023-05-14T18:19:45.524Z,5.18
2023-05-14T18:21:17.195Z,6.07
2023-05-14T18:22:51.064Z,5.00
2023-05-14T18:24:54.892Z,6.45
2023-05-14T18:26:24.561Z,4.88
2023-05-14T18:27:56.258Z,4.68
2023-05-14T18:29:27.928Z,4.78
2023-05-14T18:30:59.558Z,5.43
2023-05-14T18:32:31.281Z,6.13
2023-05-14T18:34:03.151Z,6.75
2023-05-14T18:35:35.275Z,7.15
2023-05-14T18:37:07.302Z,5.70
2023-05-14T18:38:40.997Z,5.45
2023-05-14T18:40:16.361Z,4.32
2023-05-14T18:41:50.046Z,5.03
2023-05-14T18:43:21.706Z,4.88
2023-05-14T18:44:53.403Z,6.18
2023-05-14T18:46:25.122Z,5.10
2023-05-14T18:47:57.004Z,5.50
2023-05-14T18:49:28.814Z,6.38
2023-05-14T18:51:01.128Z,5.85
2023-05-14T18:52:33.529Z,5.60
2023-05-14T18:54:06.620Z,6.18
2023-05-14T18:55:38.310Z,6.53
2023-05-14T18:57:10.256Z,6.63
2023-05-14T18:58:41.953Z,7.90
2023-05-14T19:00:14.762Z,6.18
2023-05-14T19:01:46.521Z,5.97
2023-05-14T19:03:19.873Z,6.35
2023-05-14T19:04:52.788Z,6.60
2023-05-14T19:06:24.915Z,6.93
2023-05-14T19:07:56.719Z,9.02
2023-05-14T19:09:31.730Z,6.82
2023-05-14T19:11:03.370Z,7.30
2023-05-14T19:12:35.049Z,8.52
2023-05-14T19:14:06.802Z,6.90
2023-05-14T19:15:38.572Z,7.43
2023-05-14T19:17:10.380Z,6.53
2023-05-14T19:18:42.296Z,7.50
2023-05-14T19:20:14.030Z,8.38
2023-05-14T19:21:45.736Z,6.82
2023-05-14T19:23:17.386Z,8.30
2023-05-14T19:26:22.268Z,6.93
2023-05-14T19:27:55.326Z,7.80
2023-05-14T19:29:26.946Z,8.32
2023-05-14T19:30:58.758Z,6.57
2023-05-14T19:32:30.431Z,7.68
2023-05-14T19:34:05.063Z,7.18
2023-05-14T19:35:36.811Z,6.70
2023-05-14T19:37:08.523Z,6.85
2023-05-14T19:38:40.426Z,8.32
2023-05-14T19:40:16.644Z,6.45
2023-05-14T19:41:48.312Z,8.90
2023-05-14T19:43:20.983Z,6.15
2023-05-14T19:44:52.760Z,6.68
2023-05-14T19:46:24.509Z,6.20
2023-05-14T19:47:56.620Z,6.45
2023-05-14T19:49:28.395Z,6.38
2023-05-14T19:51:00.119Z,6.60
2023-05-14T19:52:31.972Z,5.75
2023-05-14T19:54:03.717Z,6.50
2023-05-14T19:55:36.798Z,6.57
2023-05-14T19:57:09.239Z,5.75
2023-05-14T19:58:40.906Z,7.18
2023-05-14T20:00:13.577Z,5.95
2023-05-14T20:01:46.062Z,6.43
2023-05-14T20:03:17.772Z,5.47
2023-05-14T20:04:49.487Z,6.03
2023-05-14T20:06:22.764Z,5.53
2023-05-14T20:07:54.619Z,5.78
2023-05-14T20:09:26.531Z,5.35
2023-05-14T20:10:59.550Z,4.75
2023-05-14T20:12:31.414Z,4.82
2023-05-14T20:14:03.353Z,4.97
2023-05-14T20:15:35.304Z,4.15
2023-05-14T20:17:07.154Z,4.07
2023-05-14T20:18:38.833Z,3.92
2023-05-14T20:20:14.576Z,4.10
2023-05-14T20:21:48.683Z,3.92
2023-05-14T20:23:20.696Z,4.05
2023-05-14T20:24:53.840Z,3.50